Lincoln Park, Michigan
Current Conditions -  °F | °C
As of 8:53 AM on Tuesday 21 Oct 2014 (Local Time) from KDTW Reporting Station
Light Rain Light Rain  
Wind Chill:   Ceiling: 2500
Heat Index:   Visibility: 7mi
Dew Point:   Wind: 9mph
Humidity: 89%   Direction: 320°NW
Pressure: 29.98"   Gusts: NA
Location:  42.25°N, 83.18°W
Report Text: KDTW 211253Z 32008KT 7SM -RA SCT010 OVC025 09/07 A2998 RMK AO2 DZE14RAB14 SLP153 P0000 T00890072 $
Loading
Personal Weather Stations






























Interactive Weather Map
Tropical Storm Tracking
New forecast layout! Learn more

10-Day Weather Forecast

Advertisements
Track Severe Weather on mobile